sensor_id;sensor_type;location;lat;lon;timestamp;P1;durP1;ratioP1;P2;durP2;ratioP2
16839;SDS011;8536;52.150;11.572;2023-02-28T00:00:34;5.87;;;3.70;;
16839;SDS011;8536;52.150;11.572;2023-02-28T00:03:01;6.20;;;3.67;;
16839;SDS011;8536;52.150;11.572;2023-02-28T00:05:28;4.83;;;3.50;;
16839;SDS011;8536;52.150;11.572;2023-02-28T00:07:55;6.83;;;3.73;;
16839;SDS011;8536;52.150;11.572;2023-02-28T00:10:22;4.33;;;3.43;;
16839;SDS011;8536;52.150;11.572;2023-02-28T00:12:53;6.17;;;4.13;;
16839;SDS011;8536;52.150;11.572;2023-02-28T00:15:23;4.10;;;3.57;;
16839;SDS011;8536;52.150;11.572;2023-02-28T00:17:49;5.80;;;3.93;;
16839;SDS011;8536;52.150;11.572;2023-02-28T00:20:16;5.83;;;4.00;;
16839;SDS011;8536;52.150;11.572;2023-02-28T00:22:44;5.23;;;3.60;;
16839;SDS011;8536;52.150;11.572;2023-02-28T00:25:14;5.47;;;3.33;;
16839;SDS011;8536;52.150;11.572;2023-02-28T00:27:42;5.93;;;3.60;;
16839;SDS011;8536;52.150;11.572;2023-02-28T00:30:10;5.43;;;3.80;;
16839;SDS011;8536;52.150;11.572;2023-02-28T00:32:38;4.53;;;3.20;;
16839;SDS011;8536;52.150;11.572;2023-02-28T00:35:04;4.40;;;3.23;;
16839;SDS011;8536;52.150;11.572;2023-02-28T00:37:31;4.97;;;3.67;;
16839;SDS011;8536;52.150;11.572;2023-02-28T00:39:58;6.07;;;3.77;;
16839;SDS011;8536;52.150;11.572;2023-02-28T00:42:24;5.07;;;3.50;;
16839;SDS011;8536;52.150;11.572;2023-02-28T00:44:52;5.30;;;3.90;;
16839;SDS011;8536;52.150;11.572;2023-02-28T00:47:19;4.87;;;3.23;;
16839;SDS011;8536;52.150;11.572;2023-02-28T00:49:45;7.73;;;4.23;;
16839;SDS011;8536;52.150;11.572;2023-02-28T00:52:12;7.13;;;4.03;;
16839;SDS011;8536;52.150;11.572;2023-02-28T00:54:38;5.80;;;3.50;;
16839;SDS011;8536;52.150;11.572;2023-02-28T00:57:05;5.20;;;3.63;;
16839;SDS011;8536;52.150;11.572;2023-02-28T00:59:31;5.27;;;3.57;;
16839;SDS011;8536;52.150;11.572;2023-02-28T01:01:58;5.00;;;3.67;;
16839;SDS011;8536;52.150;11.572;2023-02-28T01:04:24;6.23;;;3.43;;
16839;SDS011;8536;52.150;11.572;2023-02-28T01:06:51;5.50;;;3.07;;
16839;SDS011;8536;52.150;11.572;2023-02-28T01:09:17;4.03;;;2.73;;
16839;SDS011;8536;52.150;11.572;2023-02-28T01:11:44;4.47;;;2.80;;
16839;SDS011;8536;52.150;11.572;2023-02-28T01:14:12;3.70;;;3.30;;
16839;SDS011;8536;52.150;11.572;2023-02-28T01:16:40;5.83;;;3.20;;
16839;SDS011;8536;52.150;11.572;2023-02-28T01:19:07;3.20;;;2.90;;
16839;SDS011;8536;52.150;11.572;2023-02-28T01:21:34;4.43;;;2.93;;
16839;SDS011;8536;52.150;11.572;2023-02-28T01:24:02;5.37;;;2.90;;
16839;SDS011;8536;52.150;11.572;2023-02-28T01:26:30;4.07;;;2.97;;
16839;SDS011;8536;52.150;11.572;2023-02-28T01:28:56;5.17;;;3.43;;
16839;SDS011;8536;52.150;11.572;2023-02-28T01:31:23;3.63;;;3.00;;
16839;SDS011;8536;52.150;11.572;2023-02-28T01:33:49;4.73;;;2.93;;
16839;SDS011;8536;52.150;11.572;2023-02-28T01:36:18;5.00;;;3.27;;
16839;SDS011;8536;52.150;11.572;2023-02-28T01:38:48;4.30;;;2.90;;
16839;SDS011;8536;52.150;11.572;2023-02-28T01:41:23;3.40;;;2.70;;
16839;SDS011;8536;52.150;11.572;2023-02-28T01:43:56;5.20;;;3.23;;
16839;SDS011;8536;52.150;11.572;2023-02-28T01:46:24;4.57;;;3.10;;
16839;SDS011;8536;52.150;11.572;2023-02-28T01:49:24;4.37;;;3.03;;
16839;SDS011;8536;52.150;11.572;2023-02-28T01:51:48;4.60;;;3.30;;
16839;SDS011;8536;52.150;11.572;2023-02-28T01:54:24;5.93;;;3.20;;
16839;SDS011;8536;52.150;11.572;2023-02-28T01:56:54;4.63;;;2.97;;
16839;SDS011;8536;52.150;11.572;2023-02-28T01:59:29;6.47;;;3.17;;
16839;SDS011;8536;52.150;11.572;2023-02-28T02:02:18;3.87;;;2.80;;
16839;SDS011;8536;52.150;11.572;2023-02-28T02:05:06;6.07;;;3.07;;
16839;SDS011;8536;52.150;11.572;2023-02-28T02:07:36;5.17;;;3.03;;
16839;SDS011;8536;52.150;11.572;2023-02-28T02:10:15;4.07;;;3.03;;
16839;SDS011;8536;52.150;11.572;2023-02-28T02:12:53;4.13;;;2.80;;
16839;SDS011;8536;52.150;11.572;2023-02-28T02:15:29;3.37;;;2.60;;
16839;SDS011;8536;52.150;11.572;2023-02-28T02:18:03;4.10;;;2.47;;
16839;SDS011;8536;52.150;11.572;2023-02-28T02:32:10;5.07;;;3.03;;
16839;SDS011;8536;52.150;11.572;2023-02-28T02:40:04;4.77;;;2.97;;
16839;SDS011;8536;52.150;11.572;2023-02-28T02:45:32;3.80;;;3.00;;
16839;SDS011;8536;52.150;11.572;2023-02-28T02:48:04;4.63;;;2.97;;
16839;SDS011;8536;52.150;11.572;2023-02-28T02:50:35;4.80;;;2.97;;
16839;SDS011;8536;52.150;11.572;2023-02-28T02:53:04;5.10;;;3.10;;
16839;SDS011;8536;52.150;11.572;2023-02-28T02:55:32;4.27;;;2.83;;
16839;SDS011;8536;52.150;11.572;2023-02-28T02:58:02;3.63;;;2.80;;
16839;SDS011;8536;52.150;11.572;2023-02-28T03:00:31;5.50;;;3.23;;
16839;SDS011;8536;52.150;11.572;2023-02-28T03:03:00;4.07;;;2.87;;
16839;SDS011;8536;52.150;11.572;2023-02-28T03:05:47;4.93;;;2.57;;
16839;SDS011;8536;52.150;11.572;2023-02-28T03:08:14;4.53;;;2.73;;
16839;SDS011;8536;52.150;11.572;2023-02-28T03:10:42;4.40;;;2.60;;
16839;SDS011;8536;52.150;11.572;2023-02-28T03:13:23;5.80;;;2.90;;
16839;SDS011;8536;52.150;11.572;2023-02-28T03:16:19;3.27;;;2.80;;
16839;SDS011;8536;52.150;11.572;2023-02-28T03:19:04;3.97;;;2.40;;
16839;SDS011;8536;52.150;11.572;2023-02-28T03:22:01;3.30;;;2.23;;
16839;SDS011;8536;52.150;11.572;2023-02-28T03:27:09;3.20;;;2.50;;
16839;SDS011;8536;52.150;11.572;2023-02-28T03:29:43;2.80;;;2.33;;
16839;SDS011;8536;52.150;11.572;2023-02-28T03:32:23;3.73;;;2.17;;
16839;SDS011;8536;52.150;11.572;2023-02-28T03:35:16;3.73;;;2.23;;
16839;SDS011;8536;52.150;11.572;2023-02-28T03:37:49;3.20;;;2.17;;
16839;SDS011;8536;52.150;11.572;2023-02-28T03:40:30;3.83;;;2.27;;
16839;SDS011;8536;52.150;11.572;2023-02-28T03:42:59;2.97;;;2.27;;
16839;SDS011;8536;52.150;11.572;2023-02-28T03:45:29;3.37;;;2.27;;
16839;SDS011;8536;52.150;11.572;2023-02-28T03:48:01;2.90;;;2.30;;
16839;SDS011;8536;52.150;11.572;2023-02-28T03:50:34;2.40;;;1.70;;
16839;SDS011;8536;52.150;11.572;2023-02-28T03:53:04;3.23;;;1.90;;
16839;SDS011;8536;52.150;11.572;2023-02-28T03:55:36;2.90;;;1.93;;
16839;SDS011;8536;52.150;11.572;2023-02-28T03:58:14;3.57;;;2.30;;
16839;SDS011;8536;52.150;11.572;2023-02-28T04:01:09;3.80;;;2.10;;
16839;SDS011;8536;52.150;11.572;2023-02-28T04:03:38;3.50;;;2.17;;
16839;SDS011;8536;52.150;11.572;2023-02-28T04:08:39;2.90;;;2.40;;
16839;SDS011;8536;52.150;11.572;2023-02-28T04:14:09;4.00;;;2.60;;
16839;SDS011;8536;52.150;11.572;2023-02-28T04:16:37;7.50;;;2.43;;
16839;SDS011;8536;52.150;11.572;2023-02-28T04:19:06;4.60;;;2.67;;
16839;SDS011;8536;52.150;11.572;2023-02-28T04:21:37;2.60;;;2.20;;
16839;SDS011;8536;52.150;11.572;2023-02-28T04:24:06;4.97;;;2.53;;
16839;SDS011;8536;52.150;11.572;2023-02-28T04:26:35;3.27;;;2.37;;
16839;SDS011;8536;52.150;11.572;2023-02-28T04:29:03;3.27;;;2.60;;
16839;SDS011;8536;52.150;11.572;2023-02-28T04:31:31;3.73;;;2.43;;
16839;SDS011;8536;52.150;11.572;2023-02-28T04:33:58;4.70;;;2.17;;
16839;SDS011;8536;52.150;11.572;2023-02-28T04:36:25;3.93;;;2.33;;
16839;SDS011;8536;52.150;11.572;2023-02-28T04:38:52;5.73;;;2.80;;
16839;SDS011;8536;52.150;11.572;2023-02-28T04:41:18;4.23;;;2.27;;
16839;SDS011;8536;52.150;11.572;2023-02-28T04:43:45;3.10;;;2.33;;
16839;SDS011;8536;52.150;11.572;2023-02-28T04:46:12;3.90;;;2.50;;
16839;SDS011;8536;52.150;11.572;2023-02-28T04:48:39;4.47;;;2.60;;
16839;SDS011;8536;52.150;11.572;2023-02-28T04:51:07;3.67;;;2.33;;
16839;SDS011;8536;52.150;11.572;2023-02-28T04:53:35;2.93;;;2.00;;
16839;SDS011;8536;52.150;11.572;2023-02-28T04:56:02;3.63;;;2.63;;
16839;SDS011;8536;52.150;11.572;2023-02-28T04:58:29;4.67;;;3.03;;
16839;SDS011;8536;52.150;11.572;2023-02-28T05:01:03;4.60;;;2.60;;
16839;SDS011;8536;52.150;11.572;2023-02-28T05:03:31;4.30;;;2.13;;
16839;SDS011;8536;52.150;11.572;2023-02-28T05:05:57;4.90;;;2.77;;
16839;SDS011;8536;52.150;11.572;2023-02-28T05:08:24;7.80;;;3.20;;
16839;SDS011;8536;52.150;11.572;2023-02-28T05:10:51;6.77;;;3.30;;
16839;SDS011;8536;52.150;11.572;2023-02-28T05:13:17;6.00;;;3.33;;
16839;SDS011;8536;52.150;11.572;2023-02-28T05:15:44;5.70;;;3.20;;
16839;SDS011;8536;52.150;11.572;2023-02-28T05:18:11;7.67;;;4.37;;
16839;SDS011;8536;52.150;11.572;2023-02-28T05:20:37;9.20;;;4.43;;
16839;SDS011;8536;52.150;11.572;2023-02-28T05:23:04;10.93;;;5.07;;
16839;SDS011;8536;52.150;11.572;2023-02-28T05:25:30;8.10;;;4.47;;
16839;SDS011;8536;52.150;11.572;2023-02-28T05:27:57;7.10;;;4.50;;
16839;SDS011;8536;52.150;11.572;2023-02-28T05:30:23;7.47;;;4.40;;
16839;SDS011;8536;52.150;11.572;2023-02-28T05:32:50;7.17;;;4.20;;
16839;SDS011;8536;52.150;11.572;2023-02-28T05:35:17;8.73;;;4.03;;
16839;SDS011;8536;52.150;11.572;2023-02-28T05:37:44;5.40;;;4.17;;
16839;SDS011;8536;52.150;11.572;2023-02-28T05:40:11;6.47;;;4.60;;
16839;SDS011;8536;52.150;11.572;2023-02-28T05:42:37;9.33;;;6.20;;
16839;SDS011;8536;52.150;11.572;2023-02-28T05:45:04;8.43;;;6.63;;
16839;SDS011;8536;52.150;11.572;2023-02-28T05:47:33;8.50;;;5.80;;
16839;SDS011;8536;52.150;11.572;2023-02-28T05:49:59;7.57;;;4.43;;
16839;SDS011;8536;52.150;11.572;2023-02-28T05:52:27;5.93;;;4.10;;
16839;SDS011;8536;52.150;11.572;2023-02-28T05:54:53;5.43;;;4.00;;
16839;SDS011;8536;52.150;11.572;2023-02-28T05:57:20;3.47;;;2.97;;
16839;SDS011;8536;52.150;11.572;2023-02-28T05:59:50;3.97;;;3.27;;
16839;SDS011;8536;52.150;11.572;2023-02-28T06:02:17;5.03;;;2.80;;
16839;SDS011;8536;52.150;11.572;2023-02-28T06:04:44;4.23;;;2.70;;
16839;SDS011;8536;52.150;11.572;2023-02-28T06:07:11;3.87;;;2.40;;
16839;SDS011;8536;52.150;11.572;2023-02-28T06:09:39;4.27;;;2.87;;
16839;SDS011;8536;52.150;11.572;2023-02-28T06:12:06;5.73;;;2.60;;
16839;SDS011;8536;52.150;11.572;2023-02-28T06:14:33;3.13;;;2.30;;
16839;SDS011;8536;52.150;11.572;2023-02-28T06:17:00;2.80;;;2.50;;
16839;SDS011;8536;52.150;11.572;2023-02-28T06:19:27;4.17;;;2.53;;
16839;SDS011;8536;52.150;11.572;2023-02-28T06:21:54;3.50;;;2.57;;
16839;SDS011;8536;52.150;11.572;2023-02-28T06:24:23;4.23;;;2.63;;
16839;SDS011;8536;52.150;11.572;2023-02-28T06:26:50;4.13;;;2.97;;
16839;SDS011;8536;52.150;11.572;2023-02-28T06:29:17;4.33;;;2.57;;
16839;SDS011;8536;52.150;11.572;2023-02-28T06:31:45;3.53;;;2.40;;
16839;SDS011;8536;52.150;11.572;2023-02-28T06:34:12;4.00;;;2.67;;
16839;SDS011;8536;52.150;11.572;2023-02-28T06:36:39;4.27;;;2.80;;
16839;SDS011;8536;52.150;11.572;2023-02-28T06:39:07;4.27;;;2.57;;
16839;SDS011;8536;52.150;11.572;2023-02-28T06:41:34;4.27;;;2.53;;
16839;SDS011;8536;52.150;11.572;2023-02-28T06:44:19;3.43;;;2.43;;
16839;SDS011;8536;52.150;11.572;2023-02-28T06:46:46;3.53;;;2.50;;
16839;SDS011;8536;52.150;11.572;2023-02-28T06:49:13;4.63;;;2.50;;
16839;SDS011;8536;52.150;11.572;2023-02-28T06:51:40;4.57;;;2.70;;
16839;SDS011;8536;52.150;11.572;2023-02-28T06:54:08;4.60;;;2.60;;
16839;SDS011;8536;52.150;11.572;2023-02-28T06:56:35;3.03;;;2.50;;
16839;SDS011;8536;52.150;11.572;2023-02-28T06:59:02;5.83;;;2.50;;
16839;SDS011;8536;52.150;11.572;2023-02-28T07:01:29;3.37;;;2.70;;
16839;SDS011;8536;52.150;11.572;2023-02-28T07:03:58;3.00;;;2.40;;
16839;SDS011;8536;52.150;11.572;2023-02-28T07:06:26;3.63;;;2.80;;
16839;SDS011;8536;52.150;11.572;2023-02-28T07:08:53;3.83;;;2.90;;
16839;SDS011;8536;52.150;11.572;2023-02-28T07:11:20;4.43;;;2.80;;
16839;SDS011;8536;52.150;11.572;2023-02-28T07:13:49;4.93;;;3.37;;
16839;SDS011;8536;52.150;11.572;2023-02-28T07:16:17;3.60;;;2.53;;
16839;SDS011;8536;52.150;11.572;2023-02-28T07:18:44;4.33;;;2.70;;
16839;SDS011;8536;52.150;11.572;2023-02-28T07:21:10;6.00;;;3.20;;
16839;SDS011;8536;52.150;11.572;2023-02-28T07:23:37;2.87;;;2.40;;
16839;SDS011;8536;52.150;11.572;2023-02-28T07:26:05;6.27;;;2.87;;
16839;SDS011;8536;52.150;11.572;2023-02-28T07:28:32;4.50;;;2.20;;
16839;SDS011;8536;52.150;11.572;2023-02-28T07:31:03;3.80;;;2.50;;
16839;SDS011;8536;52.150;11.572;2023-02-28T07:33:33;3.77;;;2.90;;
16839;SDS011;8536;52.150;11.572;2023-02-28T07:36:01;5.30;;;3.50;;
16839;SDS011;8536;52.150;11.572;2023-02-28T07:38:28;4.13;;;2.60;;
16839;SDS011;8536;52.150;11.572;2023-02-28T07:40:55;6.57;;;3.40;;
16839;SDS011;8536;52.150;11.572;2023-02-28T07:43:21;3.80;;;2.70;;
16839;SDS011;8536;52.150;11.572;2023-02-28T07:45:48;3.03;;;2.50;;
16839;SDS011;8536;52.150;11.572;2023-02-28T07:48:14;3.73;;;2.80;;
16839;SDS011;8536;52.150;11.572;2023-02-28T07:50:41;5.00;;;3.20;;
16839;SDS011;8536;52.150;11.572;2023-02-28T07:53:08;6.83;;;3.47;;
16839;SDS011;8536;52.150;11.572;2023-02-28T07:55:34;6.07;;;3.50;;
16839;SDS011;8536;52.150;11.572;2023-02-28T07:58:01;6.13;;;3.43;;
16839;SDS011;8536;52.150;11.572;2023-02-28T08:00:27;4.53;;;2.97;;
16839;SDS011;8536;52.150;11.572;2023-02-28T08:02:55;7.37;;;3.20;;
16839;SDS011;8536;52.150;11.572;2023-02-28T08:05:21;4.40;;;2.80;;
16839;SDS011;8536;52.150;11.572;2023-02-28T08:07:51;4.23;;;2.80;;
16839;SDS011;8536;52.150;11.572;2023-02-28T08:10:17;6.10;;;3.53;;
16839;SDS011;8536;52.150;11.572;2023-02-28T08:12:44;5.27;;;3.57;;
16839;SDS011;8536;52.150;11.572;2023-02-28T08:15:10;6.00;;;3.20;;
16839;SDS011;8536;52.150;11.572;2023-02-28T08:17:37;8.07;;;3.43;;
16839;SDS011;8536;52.150;11.572;2023-02-28T08:20:04;5.03;;;3.43;;
16839;SDS011;8536;52.150;11.572;2023-02-28T08:22:30;4.83;;;3.30;;
16839;SDS011;8536;52.150;11.572;2023-02-28T08:24:57;5.73;;;3.73;;
16839;SDS011;8536;52.150;11.572;2023-02-28T08:27:23;6.37;;;4.03;;
16839;SDS011;8536;52.150;11.572;2023-02-28T08:29:50;4.73;;;3.13;;
16839;SDS011;8536;52.150;11.572;2023-02-28T08:32:16;5.63;;;3.93;;
16839;SDS011;8536;52.150;11.572;2023-02-28T08:34:55;4.20;;;3.17;;
16839;SDS011;8536;52.150;11.572;2023-02-28T08:37:21;6.27;;;3.17;;
16839;SDS011;8536;52.150;11.572;2023-02-28T08:39:48;4.93;;;3.23;;
16839;SDS011;8536;52.150;11.572;2023-02-28T08:42:14;5.27;;;2.70;;
16839;SDS011;8536;52.150;11.572;2023-02-28T08:44:41;6.13;;;3.10;;
16839;SDS011;8536;52.150;11.572;2023-02-28T08:47:07;3.33;;;3.03;;
16839;SDS011;8536;52.150;11.572;2023-02-28T08:49:34;4.37;;;3.27;;
16839;SDS011;8536;52.150;11.572;2023-02-28T08:52:00;4.43;;;2.90;;
16839;SDS011;8536;52.150;11.572;2023-02-28T08:54:27;5.20;;;2.87;;
16839;SDS011;8536;52.150;11.572;2023-02-28T08:56:56;5.07;;;2.90;;
16839;SDS011;8536;52.150;11.572;2023-02-28T08:59:23;4.37;;;2.77;;
16839;SDS011;8536;52.150;11.572;2023-02-28T09:01:49;4.60;;;2.70;;
16839;SDS011;8536;52.150;11.572;2023-02-28T09:04:16;7.50;;;3.07;;
16839;SDS011;8536;52.150;11.572;2023-02-28T09:06:46;5.00;;;3.30;;
16839;SDS011;8536;52.150;11.572;2023-02-28T09:09:12;4.80;;;2.70;;
16839;SDS011;8536;52.150;11.572;2023-02-28T09:11:39;6.20;;;3.00;;
16839;SDS011;8536;52.150;11.572;2023-02-28T09:14:05;2.93;;;2.60;;
16839;SDS011;8536;52.150;11.572;2023-02-28T09:16:32;3.43;;;2.50;;
16839;SDS011;8536;52.150;11.572;2023-02-28T09:19:01;2.83;;;2.40;;
16839;SDS011;8536;52.150;11.572;2023-02-28T09:21:28;2.60;;;2.40;;
16839;SDS011;8536;52.150;11.572;2023-02-28T09:23:55;2.57;;;1.80;;
16839;SDS011;8536;52.150;11.572;2023-02-28T09:26:23;2.70;;;2.13;;
16839;SDS011;8536;52.150;11.572;2023-02-28T09:28:51;2.87;;;1.90;;
16839;SDS011;8536;52.150;11.572;2023-02-28T09:31:21;3.17;;;2.03;;
16839;SDS011;8536;52.150;11.572;2023-02-28T09:33:51;3.50;;;1.83;;
16839;SDS011;8536;52.150;11.572;2023-02-28T09:36:19;2.80;;;1.50;;
16839;SDS011;8536;52.150;11.572;2023-02-28T09:38:48;1.57;;;1.30;;
16839;SDS011;8536;52.150;11.572;2023-02-28T09:41:17;3.63;;;1.60;;
16839;SDS011;8536;52.150;11.572;2023-02-28T09:43:47;1.87;;;1.20;;
16839;SDS011;8536;52.150;11.572;2023-02-28T09:49:08;2.17;;;1.60;;
16839;SDS011;8536;52.150;11.572;2023-02-28T09:54:14;1.90;;;1.17;;
16839;SDS011;8536;52.150;11.572;2023-02-28T09:56:49;3.53;;;1.70;;
16839;SDS011;8536;52.150;11.572;2023-02-28T10:04:44;1.83;;;1.50;;
16839;SDS011;8536;52.150;11.572;2023-02-28T10:10:23;2.27;;;1.30;;
16839;SDS011;8536;52.150;11.572;2023-02-28T10:12:53;2.70;;;1.50;;
16839;SDS011;8536;52.150;11.572;2023-02-28T10:15:21;1.83;;;1.67;;
16839;SDS011;8536;52.150;11.572;2023-02-28T10:17:51;3.40;;;1.93;;
16839;SDS011;8536;52.150;11.572;2023-02-28T10:20:34;2.30;;;1.57;;
16839;SDS011;8536;52.150;11.572;2023-02-28T10:23:07;1.90;;;1.30;;
16839;SDS011;8536;52.150;11.572;2023-02-28T10:25:37;3.40;;;1.67;;
16839;SDS011;8536;52.150;11.572;2023-02-28T10:28:14;2.40;;;1.43;;
16839;SDS011;8536;52.150;11.572;2023-02-28T10:30:49;2.73;;;1.43;;
16839;SDS011;8536;52.150;11.572;2023-02-28T10:33:19;2.17;;;1.20;;
16839;SDS011;8536;52.150;11.572;2023-02-28T10:35:49;2.60;;;1.60;;
16839;SDS011;8536;52.150;11.572;2023-02-28T10:38:38;3.53;;;1.60;;
16839;SDS011;8536;52.150;11.572;2023-02-28T10:41:05;1.80;;;1.40;;
16839;SDS011;8536;52.150;11.572;2023-02-28T10:43:43;3.30;;;1.50;;
16839;SDS011;8536;52.150;11.572;2023-02-28T10:46:14;2.23;;;1.33;;
16839;SDS011;8536;52.150;11.572;2023-02-28T10:51:39;1.77;;;1.50;;
16839;SDS011;8536;52.150;11.572;2023-02-28T10:54:14;3.20;;;1.33;;
16839;SDS011;8536;52.150;11.572;2023-02-28T10:56:42;1.93;;;1.23;;
16839;SDS011;8536;52.150;11.572;2023-02-28T11:01:42;1.90;;;1.40;;
16839;SDS011;8536;52.150;11.572;2023-02-28T11:04:33;1.30;;;1.20;;
16839;SDS011;8536;52.150;11.572;2023-02-28T11:06:59;2.27;;;1.60;;
16839;SDS011;8536;52.150;11.572;2023-02-28T11:09:36;3.03;;;1.23;;
16839;SDS011;8536;52.150;11.572;2023-02-28T11:12:10;1.90;;;1.40;;
16839;SDS011;8536;52.150;11.572;2023-02-28T11:14:47;2.60;;;1.50;;
16839;SDS011;8536;52.150;11.572;2023-02-28T11:17:20;2.13;;;1.83;;
16839;SDS011;8536;52.150;11.572;2023-02-28T11:19:54;3.40;;;1.50;;
16839;SDS011;8536;52.150;11.572;2023-02-28T11:22:24;1.87;;;1.40;;
16839;SDS011;8536;52.150;11.572;2023-02-28T11:24:55;2.00;;;1.33;;
16839;SDS011;8536;52.150;11.572;2023-02-28T11:27:46;2.23;;;1.27;;
16839;SDS011;8536;52.150;11.572;2023-02-28T11:33:27;3.27;;;1.40;;
16839;SDS011;8536;52.150;11.572;2023-02-28T11:36:02;3.03;;;1.90;;
16839;SDS011;8536;52.150;11.572;2023-02-28T11:38:31;2.40;;;1.70;;
16839;SDS011;8536;52.150;11.572;2023-02-28T11:44:01;1.80;;;1.60;;
16839;SDS011;8536;52.150;11.572;2023-02-28T11:46:51;2.17;;;1.80;;
16839;SDS011;8536;52.150;11.572;2023-02-28T11:57:58;2.03;;;1.50;;
16839;SDS011;8536;52.150;11.572;2023-02-28T12:00:40;2.20;;;1.50;;
16839;SDS011;8536;52.150;11.572;2023-02-28T12:05:47;1.77;;;1.53;;
16839;SDS011;8536;52.150;11.572;2023-02-28T12:14:09;2.73;;;1.90;;
16839;SDS011;8536;52.150;11.572;2023-02-28T12:16:52;1.50;;;1.40;;
16839;SDS011;8536;52.150;11.572;2023-02-28T12:19:26;2.90;;;2.03;;
16839;SDS011;8536;52.150;11.572;2023-02-28T12:22:12;2.03;;;1.53;;
16839;SDS011;8536;52.150;11.572;2023-02-28T12:27:48;2.90;;;1.90;;
16839;SDS011;8536;52.150;11.572;2023-02-28T12:30:21;2.33;;;1.50;;
16839;SDS011;8536;52.150;11.572;2023-02-28T12:32:58;2.80;;;1.60;;
16839;SDS011;8536;52.150;11.572;2023-02-28T12:35:34;2.77;;;1.83;;
16839;SDS011;8536;52.150;11.572;2023-02-28T12:38:12;2.00;;;1.37;;
16839;SDS011;8536;52.150;11.572;2023-02-28T12:40:45;3.30;;;1.50;;
16839;SDS011;8536;52.150;11.572;2023-02-28T12:43:16;1.87;;;1.40;;
16839;SDS011;8536;52.150;11.572;2023-02-28T12:45:50;3.73;;;1.93;;
16839;SDS011;8536;52.150;11.572;2023-02-28T12:48:42;1.77;;;1.67;;
16839;SDS011;8536;52.150;11.572;2023-02-28T12:51:08;2.87;;;1.77;;
16839;SDS011;8536;52.150;11.572;2023-02-28T12:56:33;3.57;;;1.73;;
16839;SDS011;8536;52.150;11.572;2023-02-28T12:59:13;2.67;;;1.33;;
16839;SDS011;8536;52.150;11.572;2023-02-28T13:04:41;2.57;;;1.53;;
16839;SDS011;8536;52.150;11.572;2023-02-28T13:09:51;3.70;;;1.70;;
16839;SDS011;8536;52.150;11.572;2023-02-28T13:12:20;2.13;;;1.60;;
16839;SDS011;8536;52.150;11.572;2023-02-28T13:14:49;3.10;;;1.40;;
16839;SDS011;8536;52.150;11.572;2023-02-28T13:17:18;2.67;;;1.40;;
16839;SDS011;8536;52.150;11.572;2023-02-28T13:20:34;1.67;;;1.57;;
16839;SDS011;8536;52.150;11.572;2023-02-28T13:22:43;2.03;;;1.80;;
16839;SDS011;8536;52.150;11.572;2023-02-28T13:28:00;3.00;;;1.60;;
16839;SDS011;8536;52.150;11.572;2023-02-28T13:33:31;2.13;;;1.60;;
16839;SDS011;8536;52.150;11.572;2023-02-28T13:36:01;2.67;;;1.60;;
16839;SDS011;8536;52.150;11.572;2023-02-28T13:38:37;4.07;;;2.27;;
16839;SDS011;8536;52.150;11.572;2023-02-28T13:46:27;2.70;;;1.63;;
16839;SDS011;8536;52.150;11.572;2023-02-28T13:48:53;2.70;;;1.80;;
16839;SDS011;8536;52.150;11.572;2023-02-28T13:54:12;2.93;;;1.80;;
16839;SDS011;8536;52.150;11.572;2023-02-28T13:56:49;2.80;;;2.10;;
16839;SDS011;8536;52.150;11.572;2023-02-28T13:59:29;2.77;;;1.70;;
16839;SDS011;8536;52.150;11.572;2023-02-28T14:05:04;2.20;;;1.50;;
16839;SDS011;8536;52.150;11.572;2023-02-28T14:07:55;3.77;;;2.17;;
16839;SDS011;8536;52.150;11.572;2023-02-28T14:10:24;3.07;;;1.70;;
16839;SDS011;8536;52.150;11.572;2023-02-28T14:18:11;3.27;;;1.93;;
16839;SDS011;8536;52.150;11.572;2023-02-28T14:20:41;2.93;;;2.00;;
16839;SDS011;8536;52.150;11.572;2023-02-28T14:25:58;2.40;;;1.57;;
16839;SDS011;8536;52.150;11.572;2023-02-28T14:31:07;2.63;;;1.77;;
16839;SDS011;8536;52.150;11.572;2023-02-28T14:33:43;2.93;;;2.10;;
16839;SDS011;8536;52.150;11.572;2023-02-28T14:36:20;2.27;;;1.60;;
16839;SDS011;8536;52.150;11.572;2023-02-28T14:38:52;2.70;;;1.60;;
16839;SDS011;8536;52.150;11.572;2023-02-28T14:41:31;3.80;;;1.90;;
16839;SDS011;8536;52.150;11.572;2023-02-28T14:44:12;3.40;;;2.03;;
16839;SDS011;8536;52.150;11.572;2023-02-28T14:46:43;2.30;;;1.70;;
16839;SDS011;8536;52.150;11.572;2023-02-28T14:49:43;2.57;;;1.90;;
16839;SDS011;8536;52.150;11.572;2023-02-28T14:52:20;2.30;;;2.10;;
16839;SDS011;8536;52.150;11.572;2023-02-28T14:54:58;2.57;;;1.47;;
16839;SDS011;8536;52.150;11.572;2023-02-28T14:57:27;3.03;;;1.87;;
16839;SDS011;8536;52.150;11.572;2023-02-28T15:00:09;4.40;;;2.00;;
16839;SDS011;8536;52.150;11.572;2023-02-28T15:02:40;2.67;;;1.93;;
16839;SDS011;8536;52.150;11.572;2023-02-28T15:07:46;2.97;;;2.10;;
16839;SDS011;8536;52.150;11.572;2023-02-28T15:12:59;3.03;;;1.80;;
16839;SDS011;8536;52.150;11.572;2023-02-28T15:18:30;3.03;;;1.90;;
16839;SDS011;8536;52.150;11.572;2023-02-28T15:21:18;2.90;;;2.07;;
16839;SDS011;8536;52.150;11.572;2023-02-28T15:23:51;3.93;;;2.10;;
16839;SDS011;8536;52.150;11.572;2023-02-28T15:26:22;3.53;;;2.43;;
16839;SDS011;8536;52.150;11.572;2023-02-28T15:29:02;3.63;;;2.27;;
16839;SDS011;8536;52.150;11.572;2023-02-28T15:31:33;3.97;;;2.60;;
16839;SDS011;8536;52.150;11.572;2023-02-28T15:34:26;3.73;;;2.17;;
16839;SDS011;8536;52.150;11.572;2023-02-28T15:42:57;3.33;;;2.80;;
16839;SDS011;8536;52.150;11.572;2023-02-28T15:45:41;4.33;;;2.60;;
16839;SDS011;8536;52.150;11.572;2023-02-28T15:48:19;4.03;;;2.60;;
16839;SDS011;8536;52.150;11.572;2023-02-28T15:50:48;3.97;;;2.10;;
16839;SDS011;8536;52.150;11.572;2023-02-28T15:53:19;2.80;;;2.13;;
16839;SDS011;8536;52.150;11.572;2023-02-28T15:55:57;5.77;;;2.80;;
16839;SDS011;8536;52.150;11.572;2023-02-28T15:58:26;4.77;;;2.67;;
16839;SDS011;8536;52.150;11.572;2023-02-28T16:01:00;3.73;;;2.13;;
16839;SDS011;8536;52.150;11.572;2023-02-28T16:03:37;3.17;;;2.07;;
16839;SDS011;8536;52.150;11.572;2023-02-28T16:09:01;4.10;;;2.70;;
16839;SDS011;8536;52.150;11.572;2023-02-28T16:11:28;5.47;;;2.87;;
16839;SDS011;8536;52.150;11.572;2023-02-28T16:13:56;5.47;;;2.60;;
16839;SDS011;8536;52.150;11.572;2023-02-28T16:16:24;5.23;;;3.27;;
16839;SDS011;8536;52.150;11.572;2023-02-28T16:18:52;5.07;;;3.30;;
16839;SDS011;8536;52.150;11.572;2023-02-28T16:21:18;3.70;;;2.27;;
16839;SDS011;8536;52.150;11.572;2023-02-28T16:23:45;4.60;;;2.80;;
16839;SDS011;8536;52.150;11.572;2023-02-28T16:26:15;2.80;;;2.40;;
16839;SDS011;8536;52.150;11.572;2023-02-28T16:28:46;3.87;;;2.60;;
16839;SDS011;8536;52.150;11.572;2023-02-28T16:31:13;4.73;;;2.60;;
16839;SDS011;8536;52.150;11.572;2023-02-28T16:33:43;4.20;;;2.43;;
16839;SDS011;8536;52.150;11.572;2023-02-28T16:36:18;3.53;;;2.53;;
16839;SDS011;8536;52.150;11.572;2023-02-28T16:38:46;4.30;;;2.40;;
16839;SDS011;8536;52.150;11.572;2023-02-28T16:41:23;2.67;;;2.23;;
16839;SDS011;8536;52.150;11.572;2023-02-28T16:43:52;5.87;;;2.97;;
16839;SDS011;8536;52.150;11.572;2023-02-28T16:46:20;4.53;;;2.60;;
16839;SDS011;8536;52.150;11.572;2023-02-28T16:48:47;3.87;;;2.77;;
16839;SDS011;8536;52.150;11.572;2023-02-28T16:51:17;3.10;;;2.57;;
16839;SDS011;8536;52.150;11.572;2023-02-28T16:53:44;4.33;;;2.60;;
16839;SDS011;8536;52.150;11.572;2023-02-28T16:56:18;4.53;;;2.80;;
16839;SDS011;8536;52.150;11.572;2023-02-28T16:58:46;6.53;;;2.93;;
16839;SDS011;8536;52.150;11.572;2023-02-28T17:01:13;3.50;;;2.63;;
16839;SDS011;8536;52.150;11.572;2023-02-28T17:03:40;3.47;;;2.30;;
16839;SDS011;8536;52.150;11.572;2023-02-28T17:06:19;4.90;;;2.73;;
16839;SDS011;8536;52.150;11.572;2023-02-28T17:08:49;3.30;;;2.70;;
16839;SDS011;8536;52.150;11.572;2023-02-28T17:11:17;4.17;;;2.57;;
16839;SDS011;8536;52.150;11.572;2023-02-28T17:13:44;3.67;;;3.00;;
16839;SDS011;8536;52.150;11.572;2023-02-28T17:16:32;4.53;;;3.33;;